sensor_id;sensor_type;location;lat;lon;timestamp;P1;durP1;ratioP1;P2;durP2;ratioP2
82835;SDS011;72587;50.746;8.246;2024-03-02T00:00:18;17.80;;;7.87;;
82835;SDS011;72587;50.746;8.246;2024-03-02T00:02:45;23.33;;;9.47;;
82835;SDS011;72587;50.746;8.246;2024-03-02T00:05:14;22.07;;;9.83;;
82835;SDS011;72587;50.746;8.246;2024-03-02T00:07:41;26.87;;;10.40;;
82835;SDS011;72587;50.746;8.246;2024-03-02T00:10:08;29.93;;;10.53;;
82835;SDS011;72587;50.746;8.246;2024-03-02T00:12:39;19.83;;;9.37;;
82835;SDS011;72587;50.746;8.246;2024-03-02T00:17:55;23.07;;;10.10;;
82835;SDS011;72587;50.746;8.246;2024-03-02T00:20:23;17.73;;;9.47;;
82835;SDS011;72587;50.746;8.246;2024-03-02T00:23:01;24.10;;;9.63;;
82835;SDS011;72587;50.746;8.246;2024-03-02T00:25:35;21.57;;;9.57;;
82835;SDS011;72587;50.746;8.246;2024-03-02T00:28:13;22.43;;;9.60;;
82835;SDS011;72587;50.746;8.246;2024-03-02T00:30:57;21.30;;;9.60;;
82835;SDS011;72587;50.746;8.246;2024-03-02T00:33:37;19.97;;;9.80;;
82835;SDS011;72587;50.746;8.246;2024-03-02T00:36:03;22.07;;;9.50;;
82835;SDS011;72587;50.746;8.246;2024-03-02T00:38:30;20.07;;;9.97;;
82835;SDS011;72587;50.746;8.246;2024-03-02T00:41:00;21.00;;;9.57;;
82835;SDS011;72587;50.746;8.246;2024-03-02T00:46:16;21.40;;;9.53;;
82835;SDS011;72587;50.746;8.246;2024-03-02T00:48:53;22.33;;;10.03;;
82835;SDS011;72587;50.746;8.246;2024-03-02T00:51:21;18.50;;;9.27;;
82835;SDS011;72587;50.746;8.246;2024-03-02T00:53:52;19.60;;;10.07;;
82835;SDS011;72587;50.746;8.246;2024-03-02T00:56:20;19.20;;;9.63;;
82835;SDS011;72587;50.746;8.246;2024-03-02T00:58:46;20.07;;;9.73;;
82835;SDS011;72587;50.746;8.246;2024-03-02T01:01:12;22.80;;;9.83;;
82835;SDS011;72587;50.746;8.246;2024-03-02T01:03:38;21.07;;;10.03;;
82835;SDS011;72587;50.746;8.246;2024-03-02T01:06:04;21.77;;;10.10;;
82835;SDS011;72587;50.746;8.246;2024-03-02T01:08:30;20.53;;;9.20;;
82835;SDS011;72587;50.746;8.246;2024-03-02T01:10:55;18.87;;;9.73;;
82835;SDS011;72587;50.746;8.246;2024-03-02T01:13:21;21.53;;;9.57;;
82835;SDS011;72587;50.746;8.246;2024-03-02T01:15:48;21.93;;;9.90;;
82835;SDS011;72587;50.746;8.246;2024-03-02T01:18:14;20.90;;;9.77;;
82835;SDS011;72587;50.746;8.246;2024-03-02T01:20:40;20.07;;;10.10;;
82835;SDS011;72587;50.746;8.246;2024-03-02T01:23:05;21.83;;;10.17;;
82835;SDS011;72587;50.746;8.246;2024-03-02T01:25:31;22.97;;;9.93;;
82835;SDS011;72587;50.746;8.246;2024-03-02T01:27:56;19.87;;;9.30;;
82835;SDS011;72587;50.746;8.246;2024-03-02T01:30:22;25.67;;;10.57;;
82835;SDS011;72587;50.746;8.246;2024-03-02T01:32:48;26.30;;;10.67;;
82835;SDS011;72587;50.746;8.246;2024-03-02T01:35:13;19.23;;;10.13;;
82835;SDS011;72587;50.746;8.246;2024-03-02T01:37:40;18.93;;;9.63;;
82835;SDS011;72587;50.746;8.246;2024-03-02T01:40:06;26.03;;;10.23;;
82835;SDS011;72587;50.746;8.246;2024-03-02T01:42:37;21.93;;;10.80;;
82835;SDS011;72587;50.746;8.246;2024-03-02T01:45:07;22.53;;;10.47;;
82835;SDS011;72587;50.746;8.246;2024-03-02T01:47:33;19.57;;;9.83;;
82835;SDS011;72587;50.746;8.246;2024-03-02T01:49:59;23.00;;;10.33;;
82835;SDS011;72587;50.746;8.246;2024-03-02T01:52:25;25.03;;;10.57;;
82835;SDS011;72587;50.746;8.246;2024-03-02T01:54:51;20.17;;;10.33;;
82835;SDS011;72587;50.746;8.246;2024-03-02T01:57:17;20.73;;;10.23;;
82835;SDS011;72587;50.746;8.246;2024-03-02T01:59:43;23.87;;;10.23;;
82835;SDS011;72587;50.746;8.246;2024-03-02T02:02:09;24.00;;;10.40;;
82835;SDS011;72587;50.746;8.246;2024-03-02T02:04:35;21.80;;;11.00;;
82835;SDS011;72587;50.746;8.246;2024-03-02T02:07:00;18.50;;;10.10;;
82835;SDS011;72587;50.746;8.246;2024-03-02T02:09:26;20.60;;;9.77;;
82835;SDS011;72587;50.746;8.246;2024-03-02T02:11:51;19.70;;;10.17;;
82835;SDS011;72587;50.746;8.246;2024-03-02T02:14:17;24.20;;;10.27;;
82835;SDS011;72587;50.746;8.246;2024-03-02T02:16:43;19.47;;;9.40;;
82835;SDS011;72587;50.746;8.246;2024-03-02T02:19:09;19.40;;;8.70;;
82835;SDS011;72587;50.746;8.246;2024-03-02T02:21:35;19.40;;;8.60;;
82835;SDS011;72587;50.746;8.246;2024-03-02T02:24:01;17.30;;;8.70;;
82835;SDS011;72587;50.746;8.246;2024-03-02T02:26:28;18.60;;;8.67;;
82835;SDS011;72587;50.746;8.246;2024-03-02T02:28:54;17.67;;;8.30;;
82835;SDS011;72587;50.746;8.246;2024-03-02T02:31:20;17.50;;;8.07;;
82835;SDS011;72587;50.746;8.246;2024-03-02T02:33:45;15.53;;;8.50;;
82835;SDS011;72587;50.746;8.246;2024-03-02T02:36:11;17.67;;;8.40;;
82835;SDS011;72587;50.746;8.246;2024-03-02T02:38:38;16.80;;;8.70;;
82835;SDS011;72587;50.746;8.246;2024-03-02T02:41:07;17.53;;;8.07;;
82835;SDS011;72587;50.746;8.246;2024-03-02T02:43:33;18.10;;;8.80;;
82835;SDS011;72587;50.746;8.246;2024-03-02T02:45:59;16.03;;;8.43;;
82835;SDS011;72587;50.746;8.246;2024-03-02T02:48:24;18.00;;;8.03;;
82835;SDS011;72587;50.746;8.246;2024-03-02T02:50:50;15.47;;;8.53;;
82835;SDS011;72587;50.746;8.246;2024-03-02T02:53:16;20.57;;;8.73;;
82835;SDS011;72587;50.746;8.246;2024-03-02T02:55:41;17.93;;;8.97;;
82835;SDS011;72587;50.746;8.246;2024-03-02T02:58:08;16.93;;;8.60;;
82835;SDS011;72587;50.746;8.246;2024-03-02T03:00:34;17.77;;;8.80;;
82835;SDS011;72587;50.746;8.246;2024-03-02T03:03:01;17.27;;;9.20;;
82835;SDS011;72587;50.746;8.246;2024-03-02T03:05:27;17.47;;;9.03;;
82835;SDS011;72587;50.746;8.246;2024-03-02T03:07:53;23.27;;;8.53;;
82835;SDS011;72587;50.746;8.246;2024-03-02T03:10:18;15.20;;;8.30;;
82835;SDS011;72587;50.746;8.246;2024-03-02T03:12:47;14.90;;;8.77;;
82835;SDS011;72587;50.746;8.246;2024-03-02T03:15:12;17.77;;;8.70;;
82835;SDS011;72587;50.746;8.246;2024-03-02T03:17:39;22.13;;;9.17;;
82835;SDS011;72587;50.746;8.246;2024-03-02T03:20:05;19.30;;;9.33;;
82835;SDS011;72587;50.746;8.246;2024-03-02T03:22:34;21.70;;;9.90;;
82835;SDS011;72587;50.746;8.246;2024-03-02T03:25:01;20.23;;;10.70;;
82835;SDS011;72587;50.746;8.246;2024-03-02T03:27:26;21.57;;;10.03;;
82835;SDS011;72587;50.746;8.246;2024-03-02T03:29:52;21.07;;;10.23;;
82835;SDS011;72587;50.746;8.246;2024-03-02T03:32:17;23.70;;;10.10;;
82835;SDS011;72587;50.746;8.246;2024-03-02T03:34:43;19.47;;;8.57;;
82835;SDS011;72587;50.746;8.246;2024-03-02T03:37:09;19.13;;;9.40;;
82835;SDS011;72587;50.746;8.246;2024-03-02T03:39:35;19.03;;;8.93;;
82835;SDS011;72587;50.746;8.246;2024-03-02T03:42:01;18.20;;;9.47;;
82835;SDS011;72587;50.746;8.246;2024-03-02T03:44:26;16.80;;;8.77;;
82835;SDS011;72587;50.746;8.246;2024-03-02T03:46:52;18.63;;;9.00;;
82835;SDS011;72587;50.746;8.246;2024-03-02T03:49:17;18.87;;;9.07;;
82835;SDS011;72587;50.746;8.246;2024-03-02T03:51:43;22.33;;;10.07;;
82835;SDS011;72587;50.746;8.246;2024-03-02T03:54:09;20.73;;;9.77;;
82835;SDS011;72587;50.746;8.246;2024-03-02T03:56:36;20.37;;;10.37;;
82835;SDS011;72587;50.746;8.246;2024-03-02T03:59:01;25.70;;;10.27;;
82835;SDS011;72587;50.746;8.246;2024-03-02T04:01:27;19.87;;;9.53;;
82835;SDS011;72587;50.746;8.246;2024-03-02T04:03:53;18.67;;;9.53;;
82835;SDS011;72587;50.746;8.246;2024-03-02T04:06:18;19.03;;;9.40;;
82835;SDS011;72587;50.746;8.246;2024-03-02T04:08:44;19.90;;;9.50;;
82835;SDS011;72587;50.746;8.246;2024-03-02T04:11:09;19.83;;;9.67;;
82835;SDS011;72587;50.746;8.246;2024-03-02T04:13:35;19.53;;;9.93;;
82835;SDS011;72587;50.746;8.246;2024-03-02T04:16:00;21.50;;;9.73;;
82835;SDS011;72587;50.746;8.246;2024-03-02T04:18:26;19.57;;;10.03;;
82835;SDS011;72587;50.746;8.246;2024-03-02T04:20:51;19.07;;;9.03;;
82835;SDS011;72587;50.746;8.246;2024-03-02T04:23:17;21.87;;;9.73;;
82835;SDS011;72587;50.746;8.246;2024-03-02T04:25:43;20.60;;;9.47;;
82835;SDS011;72587;50.746;8.246;2024-03-02T04:28:08;24.53;;;8.97;;
82835;SDS011;72587;50.746;8.246;2024-03-02T04:30:34;21.70;;;9.70;;
82835;SDS011;72587;50.746;8.246;2024-03-02T04:32:59;20.07;;;9.53;;
82835;SDS011;72587;50.746;8.246;2024-03-02T04:35:26;21.27;;;9.33;;
82835;SDS011;72587;50.746;8.246;2024-03-02T04:37:51;19.93;;;9.63;;
82835;SDS011;72587;50.746;8.246;2024-03-02T04:40:17;19.93;;;9.37;;
82835;SDS011;72587;50.746;8.246;2024-03-02T04:42:42;21.37;;;10.03;;
82835;SDS011;72587;50.746;8.246;2024-03-02T04:45:08;21.03;;;9.53;;
82835;SDS011;72587;50.746;8.246;2024-03-02T04:47:34;19.57;;;9.57;;
82835;SDS011;72587;50.746;8.246;2024-03-02T04:49:59;27.93;;;9.90;;
82835;SDS011;72587;50.746;8.246;2024-03-02T04:52:25;24.27;;;10.33;;
82835;SDS011;72587;50.746;8.246;2024-03-02T04:54:51;23.10;;;10.83;;
82835;SDS011;72587;50.746;8.246;2024-03-02T04:57:41;26.83;;;10.83;;
82835;SDS011;72587;50.746;8.246;2024-03-02T05:00:07;23.70;;;10.33;;
82835;SDS011;72587;50.746;8.246;2024-03-02T05:02:34;26.03;;;9.90;;
82835;SDS011;72587;50.746;8.246;2024-03-02T05:04:59;22.13;;;10.37;;
82835;SDS011;72587;50.746;8.246;2024-03-02T05:07:25;18.90;;;9.23;;
82835;SDS011;72587;50.746;8.246;2024-03-02T05:09:51;22.30;;;9.73;;
82835;SDS011;72587;50.746;8.246;2024-03-02T05:12:17;20.40;;;9.53;;
82835;SDS011;72587;50.746;8.246;2024-03-02T05:15:14;26.67;;;10.33;;
82835;SDS011;72587;50.746;8.246;2024-03-02T05:17:41;23.07;;;9.87;;
82835;SDS011;72587;50.746;8.246;2024-03-02T05:20:08;22.10;;;9.63;;
82835;SDS011;72587;50.746;8.246;2024-03-02T05:22:34;23.67;;;9.63;;
82835;SDS011;72587;50.746;8.246;2024-03-02T05:25:00;23.30;;;9.77;;
82835;SDS011;72587;50.746;8.246;2024-03-02T05:27:26;30.00;;;10.37;;
82835;SDS011;72587;50.746;8.246;2024-03-02T05:29:52;23.47;;;9.60;;
82835;SDS011;72587;50.746;8.246;2024-03-02T05:32:18;21.20;;;9.73;;
82835;SDS011;72587;50.746;8.246;2024-03-02T05:34:43;25.20;;;9.93;;
82835;SDS011;72587;50.746;8.246;2024-03-02T05:37:09;23.40;;;9.57;;
82835;SDS011;72587;50.746;8.246;2024-03-02T05:39:34;22.60;;;10.23;;
82835;SDS011;72587;50.746;8.246;2024-03-02T05:42:00;25.40;;;10.50;;
82835;SDS011;72587;50.746;8.246;2024-03-02T05:44:26;23.40;;;10.90;;
82835;SDS011;72587;50.746;8.246;2024-03-02T05:46:51;32.10;;;11.10;;
82835;SDS011;72587;50.746;8.246;2024-03-02T05:49:17;22.90;;;9.83;;
82835;SDS011;72587;50.746;8.246;2024-03-02T05:51:43;25.70;;;10.83;;
82835;SDS011;72587;50.746;8.246;2024-03-02T05:54:08;23.40;;;10.80;;
82835;SDS011;72587;50.746;8.246;2024-03-02T05:56:34;21.93;;;10.40;;
82835;SDS011;72587;50.746;8.246;2024-03-02T05:59:00;22.10;;;9.60;;
82835;SDS011;72587;50.746;8.246;2024-03-02T06:01:38;28.43;;;11.23;;
82835;SDS011;72587;50.746;8.246;2024-03-02T06:04:05;23.57;;;10.67;;
82835;SDS011;72587;50.746;8.246;2024-03-02T06:06:30;25.20;;;10.60;;
82835;SDS011;72587;50.746;8.246;2024-03-02T06:08:58;22.37;;;10.47;;
82835;SDS011;72587;50.746;8.246;2024-03-02T06:11:32;21.60;;;9.90;;
82835;SDS011;72587;50.746;8.246;2024-03-02T06:13:58;24.43;;;11.57;;
82835;SDS011;72587;50.746;8.246;2024-03-02T06:16:24;23.00;;;10.40;;
82835;SDS011;72587;50.746;8.246;2024-03-02T06:18:49;25.90;;;10.47;;
82835;SDS011;72587;50.746;8.246;2024-03-02T06:21:15;31.77;;;11.27;;
82835;SDS011;72587;50.746;8.246;2024-03-02T06:23:40;27.30;;;11.17;;
82835;SDS011;72587;50.746;8.246;2024-03-02T06:26:06;27.50;;;11.83;;
82835;SDS011;72587;50.746;8.246;2024-03-02T06:28:31;28.27;;;12.53;;
82835;SDS011;72587;50.746;8.246;2024-03-02T06:30:57;28.27;;;12.00;;
82835;SDS011;72587;50.746;8.246;2024-03-02T06:33:22;25.17;;;12.47;;
82835;SDS011;72587;50.746;8.246;2024-03-02T06:35:48;31.17;;;13.33;;
82835;SDS011;72587;50.746;8.246;2024-03-02T06:38:14;27.77;;;11.80;;
82835;SDS011;72587;50.746;8.246;2024-03-02T06:40:39;48.17;;;18.27;;
82835;SDS011;72587;50.746;8.246;2024-03-02T06:43:05;40.87;;;14.67;;
82835;SDS011;72587;50.746;8.246;2024-03-02T06:45:31;37.77;;;14.50;;
82835;SDS011;72587;50.746;8.246;2024-03-02T06:47:58;31.63;;;14.00;;
82835;SDS011;72587;50.746;8.246;2024-03-02T06:50:24;36.53;;;14.57;;
82835;SDS011;72587;50.746;8.246;2024-03-02T06:52:50;29.93;;;12.50;;
82835;SDS011;72587;50.746;8.246;2024-03-02T06:55:15;30.00;;;13.10;;
82835;SDS011;72587;50.746;8.246;2024-03-02T06:57:41;40.23;;;15.03;;
82835;SDS011;72587;50.746;8.246;2024-03-02T07:00:06;44.97;;;15.53;;
82835;SDS011;72587;50.746;8.246;2024-03-02T07:02:34;36.63;;;15.27;;
82835;SDS011;72587;50.746;8.246;2024-03-02T07:05:00;42.20;;;14.40;;
82835;SDS011;72587;50.746;8.246;2024-03-02T07:07:25;34.23;;;14.50;;
82835;SDS011;72587;50.746;8.246;2024-03-02T07:09:51;38.63;;;14.47;;
82835;SDS011;72587;50.746;8.246;2024-03-02T07:12:16;35.57;;;14.47;;
82835;SDS011;72587;50.746;8.246;2024-03-02T07:14:42;37.57;;;14.77;;
82835;SDS011;72587;50.746;8.246;2024-03-02T07:17:26;36.90;;;14.60;;
82835;SDS011;72587;50.746;8.246;2024-03-02T07:19:51;43.97;;;14.90;;
82835;SDS011;72587;50.746;8.246;2024-03-02T07:22:17;38.40;;;15.67;;
82835;SDS011;72587;50.746;8.246;2024-03-02T07:24:43;39.97;;;16.23;;
82835;SDS011;72587;50.746;8.246;2024-03-02T07:27:09;36.97;;;16.13;;
82835;SDS011;72587;50.746;8.246;2024-03-02T07:29:35;40.60;;;16.03;;
82835;SDS011;72587;50.746;8.246;2024-03-02T07:32:01;40.13;;;16.03;;
82835;SDS011;72587;50.746;8.246;2024-03-02T07:34:27;39.00;;;15.80;;
82835;SDS011;72587;50.746;8.246;2024-03-02T07:36:52;39.73;;;17.00;;
82835;SDS011;72587;50.746;8.246;2024-03-02T07:39:18;45.37;;;18.17;;
82835;SDS011;72587;50.746;8.246;2024-03-02T07:41:44;39.63;;;17.13;;
82835;SDS011;72587;50.746;8.246;2024-03-02T07:44:11;40.47;;;18.27;;
82835;SDS011;72587;50.746;8.246;2024-03-02T07:46:39;42.10;;;18.63;;
82835;SDS011;72587;50.746;8.246;2024-03-02T07:49:06;39.73;;;17.23;;
82835;SDS011;72587;50.746;8.246;2024-03-02T07:51:32;32.90;;;13.53;;
82835;SDS011;72587;50.746;8.246;2024-03-02T07:53:57;26.80;;;13.00;;
82835;SDS011;72587;50.746;8.246;2024-03-02T07:56:23;32.20;;;13.57;;
82835;SDS011;72587;50.746;8.246;2024-03-02T07:58:48;35.53;;;14.20;;
82835;SDS011;72587;50.746;8.246;2024-03-02T08:01:14;31.57;;;14.20;;
82835;SDS011;72587;50.746;8.246;2024-03-02T08:03:40;37.93;;;15.93;;
82835;SDS011;72587;50.746;8.246;2024-03-02T08:06:06;43.37;;;17.80;;
82835;SDS011;72587;50.746;8.246;2024-03-02T08:08:31;36.83;;;16.90;;
82835;SDS011;72587;50.746;8.246;2024-03-02T08:10:57;33.97;;;14.80;;
82835;SDS011;72587;50.746;8.246;2024-03-02T08:13:22;34.00;;;14.60;;
82835;SDS011;72587;50.746;8.246;2024-03-02T08:15:48;31.30;;;15.13;;
82835;SDS011;72587;50.746;8.246;2024-03-02T08:18:14;34.33;;;14.70;;
82835;SDS011;72587;50.746;8.246;2024-03-02T08:20:40;28.70;;;14.63;;
82835;SDS011;72587;50.746;8.246;2024-03-02T08:23:05;27.67;;;13.50;;
82835;SDS011;72587;50.746;8.246;2024-03-02T08:25:31;27.70;;;13.57;;
82835;SDS011;72587;50.746;8.246;2024-03-02T08:27:57;29.57;;;13.07;;
82835;SDS011;72587;50.746;8.246;2024-03-02T08:30:23;23.07;;;12.63;;
82835;SDS011;72587;50.746;8.246;2024-03-02T08:32:49;28.90;;;13.63;;
82835;SDS011;72587;50.746;8.246;2024-03-02T08:35:14;24.00;;;11.73;;
82835;SDS011;72587;50.746;8.246;2024-03-02T08:37:40;24.37;;;12.60;;
82835;SDS011;72587;50.746;8.246;2024-03-02T08:40:08;33.10;;;14.00;;
82835;SDS011;72587;50.746;8.246;2024-03-02T08:42:34;32.27;;;13.73;;
82835;SDS011;72587;50.746;8.246;2024-03-02T08:45:00;26.13;;;13.00;;
82835;SDS011;72587;50.746;8.246;2024-03-02T08:47:26;23.53;;;12.30;;
82835;SDS011;72587;50.746;8.246;2024-03-02T08:49:52;22.70;;;11.57;;
82835;SDS011;72587;50.746;8.246;2024-03-02T08:52:18;27.10;;;12.30;;
82835;SDS011;72587;50.746;8.246;2024-03-02T08:54:43;22.03;;;11.37;;
82835;SDS011;72587;50.746;8.246;2024-03-02T08:57:09;21.57;;;11.23;;
82835;SDS011;72587;50.746;8.246;2024-03-02T08:59:35;21.53;;;11.23;;
82835;SDS011;72587;50.746;8.246;2024-03-02T09:02:00;22.13;;;11.60;;
82835;SDS011;72587;50.746;8.246;2024-03-02T09:04:26;21.13;;;10.60;;
82835;SDS011;72587;50.746;8.246;2024-03-02T09:06:53;19.47;;;10.27;;
82835;SDS011;72587;50.746;8.246;2024-03-02T09:09:18;23.80;;;11.80;;
82835;SDS011;72587;50.746;8.246;2024-03-02T09:11:45;18.87;;;9.93;;
82835;SDS011;72587;50.746;8.246;2024-03-02T09:14:11;17.13;;;9.17;;
82835;SDS011;72587;50.746;8.246;2024-03-02T09:16:37;14.53;;;8.07;;
82835;SDS011;72587;50.746;8.246;2024-03-02T09:19:03;16.10;;;8.87;;
82835;SDS011;72587;50.746;8.246;2024-03-02T09:21:28;17.23;;;8.83;;
82835;SDS011;72587;50.746;8.246;2024-03-02T09:23:55;14.87;;;7.80;;
82835;SDS011;72587;50.746;8.246;2024-03-02T09:26:21;15.43;;;7.80;;
82835;SDS011;72587;50.746;8.246;2024-03-02T09:28:49;13.47;;;7.50;;
82835;SDS011;72587;50.746;8.246;2024-03-02T09:31:15;13.57;;;7.63;;
82835;SDS011;72587;50.746;8.246;2024-03-02T09:33:41;13.10;;;7.23;;
82835;SDS011;72587;50.746;8.246;2024-03-02T09:36:16;13.73;;;7.53;;
82835;SDS011;72587;50.746;8.246;2024-03-02T09:38:43;11.53;;;6.73;;
82835;SDS011;72587;50.746;8.246;2024-03-02T09:41:08;13.83;;;7.23;;
82835;SDS011;72587;50.746;8.246;2024-03-02T09:43:34;12.13;;;6.33;;
82835;SDS011;72587;50.746;8.246;2024-03-02T09:46:00;13.80;;;6.80;;
82835;SDS011;72587;50.746;8.246;2024-03-02T09:48:25;12.37;;;6.40;;
82835;SDS011;72587;50.746;8.246;2024-03-02T09:50:51;13.93;;;6.13;;
82835;SDS011;72587;50.746;8.246;2024-03-02T09:53:16;13.80;;;5.80;;
82835;SDS011;72587;50.746;8.246;2024-03-02T09:55:46;9.57;;;5.00;;
82835;SDS011;72587;50.746;8.246;2024-03-02T09:58:12;11.27;;;5.17;;
82835;SDS011;72587;50.746;8.246;2024-03-02T10:00:38;12.97;;;5.23;;
82835;SDS011;72587;50.746;8.246;2024-03-02T10:03:03;12.60;;;6.10;;
82835;SDS011;72587;50.746;8.246;2024-03-02T10:05:32;11.07;;;5.30;;
82835;SDS011;72587;50.746;8.246;2024-03-02T10:07:59;9.07;;;5.13;;
82835;SDS011;72587;50.746;8.246;2024-03-02T10:10:33;12.20;;;6.20;;
82835;SDS011;72587;50.746;8.246;2024-03-02T10:13:04;15.97;;;5.93;;
82835;SDS011;72587;50.746;8.246;2024-03-02T10:15:34;16.27;;;6.63;;
82835;SDS011;72587;50.746;8.246;2024-03-02T10:18:00;14.03;;;4.60;;
82835;SDS011;72587;50.746;8.246;2024-03-02T10:20:26;8.90;;;4.47;;
82835;SDS011;72587;50.746;8.246;2024-03-02T10:23:18;7.87;;;4.37;;
82835;SDS011;72587;50.746;8.246;2024-03-02T10:25:43;8.60;;;3.77;;
82835;SDS011;72587;50.746;8.246;2024-03-02T10:28:10;8.60;;;4.13;;
82835;SDS011;72587;50.746;8.246;2024-03-02T10:30:35;11.17;;;3.70;;
82835;SDS011;72587;50.746;8.246;2024-03-02T10:33:01;5.67;;;3.57;;
82835;SDS011;72587;50.746;8.246;2024-03-02T10:35:28;7.27;;;4.00;;
82835;SDS011;72587;50.746;8.246;2024-03-02T10:37:53;7.10;;;4.00;;
82835;SDS011;72587;50.746;8.246;2024-03-02T10:40:23;9.17;;;4.10;;
82835;SDS011;72587;50.746;8.246;2024-03-02T10:42:51;7.00;;;3.77;;
82835;SDS011;72587;50.746;8.246;2024-03-02T10:45:18;7.87;;;4.00;;
82835;SDS011;72587;50.746;8.246;2024-03-02T10:47:46;8.20;;;3.57;;
82835;SDS011;72587;50.746;8.246;2024-03-02T10:50:12;6.17;;;3.60;;
82835;SDS011;72587;50.746;8.246;2024-03-02T10:52:38;11.07;;;4.13;;
82835;SDS011;72587;50.746;8.246;2024-03-02T10:55:04;7.70;;;3.70;;
82835;SDS011;72587;50.746;8.246;2024-03-02T10:57:33;9.18;;;4.05;;
82835;SDS011;72587;50.746;8.246;2024-03-02T11:00:21;5.10;;;3.50;;
82835;SDS011;72587;50.746;8.246;2024-03-02T11:02:56;6.20;;;3.47;;
82835;SDS011;72587;50.746;8.246;2024-03-02T11:05:26;6.77;;;3.60;;
82835;SDS011;72587;50.746;8.246;2024-03-02T11:07:55;7.63;;;3.60;;
82835;SDS011;72587;50.746;8.246;2024-03-02T11:10:25;5.80;;;3.23;;
82835;SDS011;72587;50.746;8.246;2024-03-02T11:12:59;6.20;;;2.20;;
82835;SDS011;72587;50.746;8.246;2024-03-02T11:15:27;5.57;;;1.90;;
82835;SDS011;72587;50.746;8.246;2024-03-02T11:17:53;2.20;;;1.60;;
82835;SDS011;72587;50.746;8.246;2024-03-02T11:20:19;5.00;;;1.80;;
82835;SDS011;72587;50.746;8.246;2024-03-02T11:22:46;2.60;;;1.77;;
82835;SDS011;72587;50.746;8.246;2024-03-02T11:25:31;3.50;;;1.80;;
82835;SDS011;72587;50.746;8.246;2024-03-02T11:28:01;2.97;;;1.37;;
82835;SDS011;72587;50.746;8.246;2024-03-02T11:33:03;4.83;;;2.20;;
82835;SDS011;72587;50.746;8.246;2024-03-02T11:35:33;4.27;;;1.90;;
82835;SDS011;72587;50.746;8.246;2024-03-02T11:37:59;2.83;;;1.70;;
82835;SDS011;72587;50.746;8.246;2024-03-02T11:40:28;4.03;;;2.20;;
82835;SDS011;72587;50.746;8.246;2024-03-02T11:42:54;5.00;;;2.57;;
82835;SDS011;72587;50.746;8.246;2024-03-02T11:45:24;5.77;;;2.10;;
82835;SDS011;72587;50.746;8.246;2024-03-02T11:47:51;4.17;;;2.20;;
82835;SDS011;72587;50.746;8.246;2024-03-02T11:52:54;3.83;;;2.37;;
82835;SDS011;72587;50.746;8.246;2024-03-02T11:55:25;4.93;;;2.20;;
82835;SDS011;72587;50.746;8.246;2024-03-02T11:57:54;2.57;;;1.73;;
82835;SDS011;72587;50.746;8.246;2024-03-02T12:00:20;3.93;;;1.73;;
82835;SDS011;72587;50.746;8.246;2024-03-02T12:02:46;3.30;;;1.70;;
82835;SDS011;72587;50.746;8.246;2024-03-02T12:05:24;6.73;;;2.30;;
82835;SDS011;72587;50.746;8.246;2024-03-02T12:07:55;3.57;;;1.90;;
82835;SDS011;72587;50.746;8.246;2024-03-02T12:10:41;5.57;;;2.20;;
82835;SDS011;72587;50.746;8.246;2024-03-02T12:13:07;3.03;;;1.73;;
82835;SDS011;72587;50.746;8.246;2024-03-02T12:15:35;6.23;;;1.90;;
82835;SDS011;72587;50.746;8.246;2024-03-02T12:18:02;3.60;;;1.93;;
82835;SDS011;72587;50.746;8.246;2024-03-02T12:20:29;2.90;;;1.70;;
82835;SDS011;72587;50.746;8.246;2024-03-02T12:22:59;3.17;;;1.77;;
82835;SDS011;72587;50.746;8.246;2024-03-02T12:25:27;2.93;;;1.70;;
82835;SDS011;72587;50.746;8.246;2024-03-02T12:27:58;3.67;;;2.00;;
82835;SDS011;72587;50.746;8.246;2024-03-02T12:30:26;6.17;;;2.37;;
82835;SDS011;72587;50.746;8.246;2024-03-02T12:32:54;4.30;;;1.77;;
82835;SDS011;72587;50.746;8.246;2024-03-02T12:35:20;2.93;;;1.60;;
82835;SDS011;72587;50.746;8.246;2024-03-02T12:37:49;3.57;;;1.60;;
82835;SDS011;72587;50.746;8.246;2024-03-02T12:40:15;2.90;;;1.80;;
82835;SDS011;72587;50.746;8.246;2024-03-02T12:42:43;4.20;;;1.70;;
82835;SDS011;72587;50.746;8.246;2024-03-02T12:45:12;3.97;;;1.70;;
82835;SDS011;72587;50.746;8.246;2024-03-02T12:47:39;3.37;;;1.60;;
82835;SDS011;72587;50.746;8.246;2024-03-02T12:50:06;5.37;;;2.30;;
82835;SDS011;72587;50.746;8.246;2024-03-02T12:52:32;2.53;;;1.87;;
82835;SDS011;72587;50.746;8.246;2024-03-02T12:54:59;4.40;;;1.80;;
82835;SDS011;72587;50.746;8.246;2024-03-02T12:57:29;2.93;;;1.40;;
82835;SDS011;72587;50.746;8.246;2024-03-02T13:02:27;6.10;;;2.00;;
82835;SDS011;72587;50.746;8.246;2024-03-02T13:04:54;5.10;;;1.77;;
82835;SDS011;72587;50.746;8.246;2024-03-02T13:07:20;2.73;;;1.73;;
82835;SDS011;72587;50.746;8.246;2024-03-02T13:09:48;7.10;;;1.87;;
82835;SDS011;72587;50.746;8.246;2024-03-02T13:12:15;6.27;;;2.10;;
82835;SDS011;72587;50.746;8.246;2024-03-02T13:14:41;3.20;;;1.90;;
82835;SDS011;72587;50.746;8.246;2024-03-02T13:17:10;3.70;;;1.97;;
82835;SDS011;72587;50.746;8.246;2024-03-02T13:19:43;3.23;;;1.90;;
82835;SDS011;72587;50.746;8.246;2024-03-02T13:22:35;2.60;;;1.60;;
82835;SDS011;72587;50.746;8.246;2024-03-02T13:25:01;2.60;;;1.40;;
82835;SDS011;72587;50.746;8.246;2024-03-02T13:27:29;2.97;;;1.30;;
82835;SDS011;72587;50.746;8.246;2024-03-02T13:29:56;1.83;;;1.40;;
82835;SDS011;72587;50.746;8.246;2024-03-02T13:32:22;3.30;;;1.70;;
82835;SDS011;72587;50.746;8.246;2024-03-02T13:34:49;4.47;;;1.20;;
82835;SDS011;72587;50.746;8.246;2024-03-02T13:37:15;2.87;;;1.60;;
82835;SDS011;72587;50.746;8.246;2024-03-02T13:39:40;2.10;;;1.20;;
82835;SDS011;72587;50.746;8.246;2024-03-02T13:42:10;2.73;;;1.50;;
82835;SDS011;72587;50.746;8.246;2024-03-02T13:44:38;1.60;;;1.03;;
82835;SDS011;72587;50.746;8.246;2024-03-02T13:47:04;4.60;;;1.40;;
82835;SDS011;72587;50.746;8.246;2024-03-02T13:49:30;2.03;;;1.17;;
82835;SDS011;72587;50.746;8.246;2024-03-02T13:52:01;4.13;;;1.33;;
82835;SDS011;72587;50.746;8.246;2024-03-02T13:54:30;1.70;;;1.20;;
82835;SDS011;72587;50.746;8.246;2024-03-02T13:56:56;3.80;;;1.40;;
82835;SDS011;72587;50.746;8.246;2024-03-02T13:59:23;5.90;;;2.90;;
82835;SDS011;72587;50.746;8.246;2024-03-02T14:01:49;2.70;;;1.20;;
82835;SDS011;72587;50.746;8.246;2024-03-02T14:04:15;3.03;;;1.37;;
82835;SDS011;72587;50.746;8.246;2024-03-02T14:06:40;2.30;;;1.20;;
82835;SDS011;72587;50.746;8.246;2024-03-02T14:09:08;3.73;;;1.63;;
82835;SDS011;72587;50.746;8.246;2024-03-02T14:11:34;2.43;;;1.50;;
82835;SDS011;72587;50.746;8.246;2024-03-02T14:14:00;3.73;;;1.30;;
82835;SDS011;72587;50.746;8.246;2024-03-02T14:16:26;2.90;;;1.70;;
82835;SDS011;72587;50.746;8.246;2024-03-02T14:18:52;5.53;;;2.00;;
82835;SDS011;72587;50.746;8.246;2024-03-02T14:21:18;4.50;;;2.50;;
82835;SDS011;72587;50.746;8.246;2024-03-02T14:23:43;4.70;;;2.00;;
82835;SDS011;72587;50.746;8.246;2024-03-02T14:26:09;3.63;;;2.00;;
82835;SDS011;72587;50.746;8.246;2024-03-02T14:28:34;8.90;;;4.07;;
82835;SDS011;72587;50.746;8.246;2024-03-02T14:31:00;4.17;;;2.10;;
82835;SDS011;72587;50.746;8.246;2024-03-02T14:33:26;5.93;;;2.13;;
82835;SDS011;72587;50.746;8.246;2024-03-02T14:35:52;14.20;;;2.17;;
82835;SDS011;72587;50.746;8.246;2024-03-02T14:38:18;3.67;;;1.90;;
82835;SDS011;72587;50.746;8.246;2024-03-02T14:40:44;19.83;;;3.33;;
82835;SDS011;72587;50.746;8.246;2024-03-02T14:43:10;3.43;;;2.03;;
82835;SDS011;72587;50.746;8.246;2024-03-02T14:45:35;14.65;;;2.80;;